TimeMDT,TemperatureF,Dew PointF,Humidity,Sea Level PressureIn,VisibilityMPH,Wind Direction,Wind SpeedMPH,Gust SpeedMPH,PrecipitationIn,Events,Conditions,WindDirDegrees,DateUTC
12:53 AM,55.0,30.0,38,29.91,10.0,SSW,16.1,-,N/A,,Clear,200,2012-10-02 06:53:00
1:53 AM,52.0,30.0,43,29.91,10.0,SSW,13.8,-,N/A,,Clear,200,2012-10-02 07:53:00
2:53 AM,52.0,30.0,43,29.90,10.0,SSW,12.7,-,N/A,,Clear,210,2012-10-02 08:53:00
3:53 AM,50.0,30.0,46,29.90,10.0,SSW,12.7,-,N/A,,Clear,210,2012-10-02 09:53:00
4:53 AM,46.9,30.0,52,29.91,10.0,SSW,10.4,-,N/A,,Clear,210,2012-10-02 10:53:00
5:53 AM,48.9,28.9,46,29.91,10.0,South,11.5,-,N/A,,Clear,190,2012-10-02 11:53:00
6:53 AM,48.9,28.9,46,29.90,10.0,SSW,11.5,-,N/A,,Clear,200,2012-10-02 12:53:00
7:53 AM,39.9,30.0,68,29.93,10.0,SSW,9.2,-,N/A,,Clear,210,2012-10-02 13:53:00
8:53 AM,48.9,32.0,52,29.91,10.0,SSW,10.4,-,N/A,,Clear,200,2012-10-02 14:53:00
9:53 AM,57.9,34.0,41,29.88,10.0,SW,12.7,-,N/A,,Clear,220,2012-10-02 15:53:00
10:53 AM,64.9,32.0,29,29.86,10.0,SSW,12.7,-,N/A,,Clear,210,2012-10-02 16:53:00
11:53 AM,70.0,30.0,23,29.83,10.0,West,11.5,17.3,N/A,,Clear,260,2012-10-02 17:53:00
12:53 PM,72.0,28.0,20,29.80,10.0,SW,16.1,21.9,N/A,,Clear,230,2012-10-02 18:53:00
1:53 PM,73.0,26.1,17,29.78,10.0,West,12.7,25.3,N/A,,Clear,280,2012-10-02 19:53:00
2:53 PM,73.9,23.0,15,29.75,10.0,West,19.6,26.5,N/A,,Clear,280,2012-10-02 20:53:00
3:53 PM,75.0,19.9,13,29.73,10.0,West,17.3,25.3,N/A,,Clear,280,2012-10-02 21:53:00
4:53 PM,73.0,17.1,12,29.73,10.0,WSW,17.3,27.6,N/A,,Clear,250,2012-10-02 22:53:00
6:53 PM,63.0,18.0,18,29.74,10.0,WNW,8.1,-,N/A,,Clear,290,2012-10-03 00:53:00
7:53 PM,57.0,15.1,19,29.77,10.0,South,4.6,-,N/A,,Clear,180,2012-10-03 01:53:00
8:53 PM,57.9,10.0,15,29.76,10.0,South,4.6,-,N/A,,Clear,190,2012-10-03 02:53:00
9:53 PM,54.0,10.0,17,29.76,10.0,South,8.1,-,N/A,,Clear,190,2012-10-03 03:53:00
10:53 PM,51.1,10.9,20,29.77,10.0,SSE,5.8,-,N/A,,Clear,150,2012-10-03 04:53:00
11:53 PM,48.9,12.9,24,29.76,10.0,SSE,8.1,-,N/A,,Clear,150,2012-10-03 05:53:00